sensor_id;sensor_type;location;lat;lon;timestamp;pressure;altitude;pressure_sealevel;temperature;humidity
34197;BME280;36594;45.192;5.722;2023-04-24T00:01:24;98709.86;;;24.43;37.10
34197;BME280;36594;45.192;5.722;2023-04-24T00:04:12;98716.72;;;24.43;37.14
34197;BME280;36594;45.192;5.722;2023-04-24T00:07:02;98710.94;;;24.42;37.13
34197;BME280;36594;45.192;5.722;2023-04-24T00:09:50;98715.35;;;24.43;37.14
34197;BME280;36594;45.192;5.722;2023-04-24T00:12:38;98715.05;;;24.42;37.10
34197;BME280;36594;45.192;5.722;2023-04-24T00:15:26;98713.14;;;24.43;37.10
34197;BME280;36594;45.192;5.722;2023-04-24T00:18:15;98720.55;;;24.42;37.10
34197;BME280;36594;45.192;5.722;2023-04-24T00:21:03;98723.00;;;24.41;37.11
34197;BME280;36594;45.192;5.722;2023-04-24T00:23:53;98721.60;;;24.39;37.18
34197;BME280;36594;45.192;5.722;2023-04-24T00:26:41;98733.44;;;24.42;37.11
34197;BME280;36594;45.192;5.722;2023-04-24T00:29:30;98734.83;;;24.44;37.04
34197;BME280;36594;45.192;5.722;2023-04-24T00:32:19;98731.25;;;24.44;37.08
34197;BME280;36594;45.192;5.722;2023-04-24T00:35:09;98727.11;;;24.41;37.12
34197;BME280;36594;45.192;5.722;2023-04-24T00:37:57;98735.35;;;24.41;37.11
34197;BME280;36594;45.192;5.722;2023-04-24T00:40:46;98734.79;;;24.39;37.14
34197;BME280;36594;45.192;5.722;2023-04-24T00:43:35;98732.05;;;24.39;37.11
34197;BME280;36594;45.192;5.722;2023-04-24T00:46:23;98725.72;;;24.39;37.10
34197;BME280;36594;45.192;5.722;2023-04-24T00:49:12;98732.59;;;24.36;37.13
34197;BME280;36594;45.192;5.722;2023-04-24T00:52:01;98732.59;;;24.36;37.10
34197;BME280;36594;45.192;5.722;2023-04-24T00:54:51;98733.16;;;24.38;37.09
34197;BME280;36594;45.192;5.722;2023-04-24T00:57:40;98737.53;;;24.39;37.07
34197;BME280;36594;45.192;5.722;2023-04-24T01:00:29;98727.93;;;24.39;37.03
34197;BME280;36594;45.192;5.722;2023-04-24T01:03:22;98732.59;;;24.39;37.01
34197;BME280;36594;45.192;5.722;2023-04-24T01:06:11;98740.84;;;24.36;37.06
34197;BME280;36594;45.192;5.722;2023-04-24T01:09:00;98738.08;;;24.39;37.06
34197;BME280;36594;45.192;5.722;2023-04-24T01:11:50;98734.77;;;24.37;37.03
34197;BME280;36594;45.192;5.722;2023-04-24T01:14:38;98732.30;;;24.35;37.02
34197;BME280;36594;45.192;5.722;2023-04-24T01:17:28;98730.93;;;24.35;37.04
34197;BME280;36594;45.192;5.722;2023-04-24T01:20:17;98729.56;;;24.35;37.06
34197;BME280;36594;45.192;5.722;2023-04-24T01:23:09;98732.03;;;24.37;37.01
34197;BME280;36594;45.192;5.722;2023-04-24T01:25:58;98730.39;;;24.36;36.99
34197;BME280;36594;45.192;5.722;2023-04-24T01:28:48;98738.09;;;24.36;36.98
34197;BME280;36594;45.192;5.722;2023-04-24T01:31:37;98738.89;;;24.37;37.01
34197;BME280;36594;45.192;5.722;2023-04-24T01:34:26;98736.98;;;24.37;36.98
34197;BME280;36594;45.192;5.722;2023-04-24T01:37:15;98740.54;;;24.35;36.99
34197;BME280;36594;45.192;5.722;2023-04-24T01:40:06;98738.09;;;24.36;36.98
34197;BME280;36594;45.192;5.722;2023-04-24T01:42:54;98735.90;;;24.38;36.97
34197;BME280;36594;45.192;5.722;2023-04-24T01:45:43;98734.53;;;24.38;36.90
34197;BME280;36594;45.192;5.722;2023-04-24T01:48:32;98735.61;;;24.37;36.96
34197;BME280;36594;45.192;5.722;2023-04-24T01:51:21;98733.14;;;24.36;36.97
34197;BME280;36594;45.192;5.722;2023-04-24T01:54:10;98735.07;;;24.38;36.96
34197;BME280;36594;45.192;5.722;2023-04-24T01:56:58;98723.55;;;24.38;36.91
34197;BME280;36594;45.192;5.722;2023-04-24T01:59:49;98709.80;;;24.36;36.91
34197;BME280;36594;45.192;5.722;2023-04-24T02:02:39;98703.20;;;24.37;36.90
34197;BME280;36594;45.192;5.722;2023-04-24T02:05:28;98712.80;;;24.34;36.96
34197;BME280;36594;45.192;5.722;2023-04-24T02:08:16;98719.41;;;24.36;36.96
34197;BME280;36594;45.192;5.722;2023-04-24T02:11:05;98727.91;;;24.37;36.92
34197;BME280;36594;45.192;5.722;2023-04-24T02:13:53;98730.93;;;24.35;36.91
34197;BME280;36594;45.192;5.722;2023-04-24T02:16:42;98736.98;;;24.37;36.88
34197;BME280;36594;45.192;5.722;2023-04-24T02:19:31;98738.64;;;24.38;36.89
34197;BME280;36594;45.192;5.722;2023-04-24T02:22:20;98740.28;;;24.39;36.83
34197;BME280;36594;45.192;5.722;2023-04-24T02:25:09;98744.14;;;24.38;36.82
34197;BME280;36594;45.192;5.722;2023-04-24T02:27:57;98747.70;;;24.36;36.88
34197;BME280;36594;45.192;5.722;2023-04-24T02:30:46;98755.34;;;24.34;36.90
34197;BME280;36594;45.192;5.722;2023-04-24T02:33:35;98758.37;;;24.35;36.89
34197;BME280;36594;45.192;5.722;2023-04-24T02:36:23;98763.58;;;24.34;36.91
34197;BME280;36594;45.192;5.722;2023-04-24T02:39:12;98757.52;;;24.32;36.90
34197;BME280;36594;45.192;5.722;2023-04-24T02:42:01;98758.66;;;24.34;36.88
34197;BME280;36594;45.192;5.722;2023-04-24T02:44:51;98762.50;;;24.35;36.87
34197;BME280;36594;45.192;5.722;2023-04-24T02:47:39;98766.31;;;24.34;36.82
34197;BME280;36594;45.192;5.722;2023-04-24T02:50:28;98763.88;;;24.35;36.86
34197;BME280;36594;45.192;5.722;2023-04-24T02:53:17;98761.42;;;24.36;36.79
34197;BME280;36594;45.192;5.722;2023-04-24T02:56:05;98751.80;;;24.34;36.83
34197;BME280;36594;45.192;5.722;2023-04-24T02:58:53;98755.34;;;24.34;36.84
34197;BME280;36594;45.192;5.722;2023-04-24T03:01:41;98754.27;;;24.35;36.83
34197;BME280;36594;45.192;5.722;2023-04-24T03:04:30;98751.50;;;24.33;36.80
34197;BME280;36594;45.192;5.722;2023-04-24T03:07:19;98753.98;;;24.32;36.83
34197;BME280;36594;45.192;5.722;2023-04-24T03:10:09;98760.84;;;24.32;36.84
34197;BME280;36594;45.192;5.722;2023-04-24T03:12:57;98756.16;;;24.32;36.84
34197;BME280;36594;45.192;5.722;2023-04-24T03:15:46;98758.36;;;24.33;36.82
34197;BME280;36594;45.192;5.722;2023-04-24T03:18:34;98763.31;;;24.33;36.83
34197;BME280;36594;45.192;5.722;2023-04-24T03:21:24;98754.22;;;24.30;36.84
34197;BME280;36594;45.192;5.722;2023-04-24T03:24:13;98760.27;;;24.32;36.82
34197;BME280;36594;45.192;5.722;2023-04-24T03:27:01;98770.98;;;24.31;36.82
34197;BME280;36594;45.192;5.722;2023-04-24T03:30:10;98761.38;;;24.31;36.82
34197;BME280;36594;45.192;5.722;2023-04-24T03:33:03;98748.98;;;24.26;36.85
34197;BME280;36594;45.192;5.722;2023-04-24T03:35:53;98755.33;;;24.29;36.81
34197;BME280;36594;45.192;5.722;2023-04-24T03:38:42;98752.29;;;24.28;36.83
34197;BME280;36594;45.192;5.722;2023-04-24T03:41:44;98759.17;;;24.31;36.81
34197;BME280;36594;45.192;5.722;2023-04-24T03:44:34;98761.60;;;24.27;36.87
34197;BME280;36594;45.192;5.722;2023-04-24T03:47:22;98765.48;;;24.29;36.86
34197;BME280;36594;45.192;5.722;2023-04-24T03:50:11;98754.50;;;24.29;36.84
34197;BME280;36594;45.192;5.722;2023-04-24T03:53:00;98753.69;;;24.31;36.79
34197;BME280;36594;45.192;5.722;2023-04-24T03:55:56;98749.25;;;24.27;36.89
34197;BME280;36594;45.192;5.722;2023-04-24T03:58:44;98753.95;;;24.29;36.86
34197;BME280;36594;45.192;5.722;2023-04-24T04:01:33;98754.52;;;24.31;36.82
34197;BME280;36594;45.192;5.722;2023-04-24T04:04:25;98753.64;;;24.26;36.62
34197;BME280;36594;45.192;5.722;2023-04-24T04:07:13;98755.53;;;24.23;36.76
34197;BME280;36594;45.192;5.722;2023-04-24T04:10:02;98751.39;;;24.20;36.78
34197;BME280;36594;45.192;5.722;2023-04-24T04:12:51;98761.59;;;24.22;36.77
34197;BME280;36594;45.192;5.722;2023-04-24T04:15:39;98763.74;;;24.20;36.88
34197;BME280;36594;45.192;5.722;2023-04-24T04:18:28;98767.59;;;24.19;36.96
34197;BME280;36594;45.192;5.722;2023-04-24T04:21:17;98765.92;;;24.18;36.99
34197;BME280;36594;45.192;5.722;2023-04-24T04:24:06;98756.62;;;24.19;37.03
34197;BME280;36594;45.192;5.722;2023-04-24T04:26:56;98763.50;;;24.22;37.03
34197;BME280;36594;45.192;5.722;2023-04-24T04:29:46;98764.31;;;24.20;37.03
34197;BME280;36594;45.192;5.722;2023-04-24T04:32:36;98766.27;;;24.24;37.01
34197;BME280;36594;45.192;5.722;2023-04-24T04:35:24;98765.16;;;24.25;37.01
34197;BME280;36594;45.192;5.722;2023-04-24T04:38:13;98769.27;;;24.25;37.01
34197;BME280;36594;45.192;5.722;2023-04-24T04:41:04;98779.17;;;24.26;37.06
34197;BME280;36594;45.192;5.722;2023-04-24T04:43:52;98779.98;;;24.24;37.05
34197;BME280;36594;45.192;5.722;2023-04-24T04:46:41;98774.48;;;24.22;37.05
34197;BME280;36594;45.192;5.722;2023-04-24T04:49:32;98781.36;;;24.24;37.04
34197;BME280;36594;45.192;5.722;2023-04-24T04:52:22;98786.55;;;24.23;37.06
34197;BME280;36594;45.192;5.722;2023-04-24T04:55:14;98798.06;;;24.23;37.01
34197;BME280;36594;45.192;5.722;2023-04-24T04:58:20;98792.29;;;24.19;37.05
34197;BME280;36594;45.192;5.722;2023-04-24T05:01:10;98794.73;;;24.18;37.06
34197;BME280;36594;45.192;5.722;2023-04-24T05:04:00;98795.28;;;24.15;37.12
34197;BME280;36594;45.192;5.722;2023-04-24T05:06:48;98794.50;;;24.20;37.04
34197;BME280;36594;45.192;5.722;2023-04-24T05:09:38;98793.92;;;24.20;37.01
34197;BME280;36594;45.192;5.722;2023-04-24T05:12:27;98797.27;;;24.22;37.02
34197;BME280;36594;45.192;5.722;2023-04-24T05:15:17;98800.84;;;24.25;36.95
34197;BME280;36594;45.192;5.722;2023-04-24T05:18:05;98804.13;;;24.22;37.01
34197;BME280;36594;45.192;5.722;2023-04-24T05:20:54;98809.59;;;24.20;37.21
34197;BME280;36594;45.192;5.722;2023-04-24T05:23:43;98810.97;;;24.20;37.26
34197;BME280;36594;45.192;5.722;2023-04-24T05:26:33;98811.23;;;24.21;37.26
34197;BME280;36594;45.192;5.722;2023-04-24T05:29:23;98811.52;;;24.22;37.20
34197;BME280;36594;45.192;5.722;2023-04-24T05:32:13;98813.97;;;24.21;37.21
34197;BME280;36594;45.192;5.722;2023-04-24T05:35:02;98813.95;;;24.18;37.28
34197;BME280;36594;45.192;5.722;2023-04-24T05:37:51;98816.74;;;24.23;37.25
34197;BME280;36594;45.192;5.722;2023-04-24T05:40:40;98812.37;;;24.27;37.17
34197;BME280;36594;45.192;5.722;2023-04-24T05:43:28;98814.31;;;24.27;37.17
34197;BME280;36594;45.192;5.722;2023-04-24T05:46:17;98817.87;;;24.27;37.14
34197;BME280;36594;45.192;5.722;2023-04-24T05:49:05;98820.91;;;24.28;37.13
34197;BME280;36594;45.192;5.722;2023-04-24T05:51:53;98824.48;;;24.29;37.14
34197;BME280;36594;45.192;5.722;2023-04-24T05:54:42;98826.39;;;24.28;37.13
34197;BME280;36594;45.192;5.722;2023-04-24T05:57:31;98824.21;;;24.30;37.14
34197;BME280;36594;45.192;5.722;2023-04-24T06:00:21;98828.06;;;24.29;37.13
34197;BME280;36594;45.192;5.722;2023-04-24T06:03:11;98826.69;;;24.29;37.18
34197;BME280;36594;45.192;5.722;2023-04-24T06:05:59;98841.79;;;24.29;37.22
34197;BME280;36594;45.192;5.722;2023-04-24T06:08:48;98856.05;;;24.29;37.19
34197;BME280;36594;45.192;5.722;2023-04-24T06:11:36;98860.17;;;24.29;37.23
34197;BME280;36594;45.192;5.722;2023-04-24T06:14:26;98885.94;;;24.28;37.22
34197;BME280;36594;45.192;5.722;2023-04-24T06:17:25;98887.08;;;24.29;37.23
34197;BME280;36594;45.192;5.722;2023-04-24T06:20:13;98887.86;;;24.27;37.30
34197;BME280;36594;45.192;5.722;2023-04-24T06:23:02;98892.27;;;24.28;37.31
34197;BME280;36594;45.192;5.722;2023-04-24T06:25:52;98897.48;;;24.30;37.34
34197;BME280;36594;45.192;5.722;2023-04-24T06:28:40;98889.25;;;24.30;37.36
34197;BME280;36594;45.192;5.722;2023-04-24T06:31:29;98888.17;;;24.31;37.30
34197;BME280;36594;45.192;5.722;2023-04-24T06:34:17;98891.20;;;24.29;37.36
34197;BME280;36594;45.192;5.722;2023-04-24T06:37:06;98897.78;;;24.31;37.38
34197;BME280;36594;45.192;5.722;2023-04-24T06:39:54;98896.95;;;24.30;37.40
34197;BME280;36594;45.192;5.722;2023-04-24T06:42:43;98903.27;;;24.31;37.41
34197;BME280;36594;45.192;5.722;2023-04-24T06:45:32;98902.47;;;24.33;37.37
34197;BME280;36594;45.192;5.722;2023-04-24T06:48:20;98900.83;;;24.34;37.45
34197;BME280;36594;45.192;5.722;2023-04-24T06:51:08;98904.94;;;24.34;37.38
34197;BME280;36594;45.192;5.722;2023-04-24T06:53:57;98908.49;;;24.32;37.45
34197;BME280;36594;45.192;5.722;2023-04-24T06:56:45;98918.66;;;24.34;37.50
34197;BME280;36594;45.192;5.722;2023-04-24T06:59:34;98920.31;;;24.33;37.54
34197;BME280;36594;45.192;5.722;2023-04-24T07:02:23;98918.10;;;24.32;37.59
34197;BME280;36594;45.192;5.722;2023-04-24T07:05:11;98927.14;;;24.30;37.74
34197;BME280;36594;45.192;5.722;2023-04-24T07:08:00;98941.37;;;24.27;38.00
34197;BME280;36594;45.192;5.722;2023-04-24T07:10:50;98943.85;;;24.26;38.09
34197;BME280;36594;45.192;5.722;2023-04-24T07:13:38;98949.05;;;24.25;38.34
34197;BME280;36594;45.192;5.722;2023-04-24T07:16:28;98953.73;;;24.27;38.22
34197;BME280;36594;45.192;5.722;2023-04-24T07:19:17;98946.27;;;24.23;38.28
34197;BME280;36594;45.192;5.722;2023-04-24T07:22:05;98949.82;;;24.21;38.23
34197;BME280;36594;45.192;5.722;2023-04-24T07:24:54;98949.85;;;24.23;38.15
34197;BME280;36594;45.192;5.722;2023-04-24T07:27:42;98950.15;;;24.24;38.22
34197;BME280;36594;45.192;5.722;2023-04-24T07:30:31;98944.39;;;24.26;38.24
34197;BME280;36594;45.192;5.722;2023-04-24T07:33:20;98953.48;;;24.29;38.20
34197;BME280;36594;45.192;5.722;2023-04-24T07:36:08;98953.48;;;24.29;38.16
34197;BME280;36594;45.192;5.722;2023-04-24T07:38:58;98963.09;;;24.29;38.19
34197;BME280;36594;45.192;5.722;2023-04-24T07:41:47;98972.17;;;24.29;38.28
34197;BME280;36594;45.192;5.722;2023-04-24T07:44:35;98968.61;;;24.31;38.17
34197;BME280;36594;45.192;5.722;2023-04-24T07:47:23;98973.77;;;24.28;38.17
34197;BME280;36594;45.192;5.722;2023-04-24T07:50:12;98977.06;;;24.27;38.17
34197;BME280;36594;45.192;5.722;2023-04-24T07:53:00;98980.61;;;24.25;38.28
34197;BME280;36594;45.192;5.722;2023-04-24T07:55:48;98983.66;;;24.26;38.26
34197;BME280;36594;45.192;5.722;2023-04-24T07:58:37;98994.33;;;24.25;38.22
34197;BME280;36594;45.192;5.722;2023-04-24T08:01:25;98992.69;;;24.24;38.23
34197;BME280;36594;45.192;5.722;2023-04-24T08:04:14;98998.75;;;24.26;38.30
34197;BME280;36594;45.192;5.722;2023-04-24T08:07:03;98997.08;;;24.25;38.24
34197;BME280;36594;45.192;5.722;2023-04-24T08:09:51;99002.87;;;24.26;38.25
34197;BME280;36594;45.192;5.722;2023-04-24T08:12:40;98994.13;;;24.29;38.12
34197;BME280;36594;45.192;5.722;2023-04-24T08:15:28;98997.44;;;24.31;38.06
34197;BME280;36594;45.192;5.722;2023-04-24T08:18:17;98997.67;;;24.30;38.07
34197;BME280;36594;45.192;5.722;2023-04-24T08:21:05;98993.86;;;24.31;37.97
34197;BME280;36594;45.192;5.722;2023-04-24T08:23:53;98992.75;;;24.29;38.09
34197;BME280;36594;45.192;5.722;2023-04-24T08:26:43;98992.22;;;24.32;38.03
34197;BME280;36594;45.192;5.722;2023-04-24T08:29:31;98995.53;;;24.34;38.00
34197;BME280;36594;45.192;5.722;2023-04-24T08:32:20;99008.95;;;24.31;38.02
34197;BME280;36594;45.192;5.722;2023-04-24T08:35:09;99011.43;;;24.32;37.98
34197;BME280;36594;45.192;5.722;2023-04-24T08:37:57;99015.55;;;24.32;37.95
34197;BME280;36594;45.192;5.722;2023-04-24T08:40:45;99009.25;;;24.32;37.97
34197;BME280;36594;45.192;5.722;2023-04-24T08:43:36;99010.59;;;24.29;38.00
34197;BME280;36594;45.192;5.722;2023-04-24T08:46:25;99009.52;;;24.33;37.96
34197;BME280;36594;45.192;5.722;2023-04-24T08:49:15;99011.43;;;24.32;37.98
34197;BME280;36594;45.192;5.722;2023-04-24T08:52:05;99007.88;;;24.32;37.99
34197;BME280;36594;45.192;5.722;2023-04-24T08:54:54;99013.61;;;24.30;38.06
34197;BME280;36594;45.192;5.722;2023-04-24T08:57:42;99013.91;;;24.31;38.03
34197;BME280;36594;45.192;5.722;2023-04-24T09:00:32;99015.31;;;24.34;38.02
34197;BME280;36594;45.192;5.722;2023-04-24T09:03:21;99007.61;;;24.33;38.00
34197;BME280;36594;45.192;5.722;2023-04-24T09:06:11;99006.78;;;24.33;38.07
34197;BME280;36594;45.192;5.722;2023-04-24T09:09:01;99001.55;;;24.31;38.08
34197;BME280;36594;45.192;5.722;2023-04-24T09:11:52;99001.59;;;24.34;37.97
34197;BME280;36594;45.192;5.722;2023-04-24T09:14:43;99002.39;;;24.34;37.96
34197;BME280;36594;45.192;5.722;2023-04-24T09:17:33;99004.06;;;24.35;38.03
34197;BME280;36594;45.192;5.722;2023-04-24T09:20:22;99013.10;;;24.33;38.00
34197;BME280;36594;45.192;5.722;2023-04-24T09:23:11;99010.09;;;24.35;38.02
34197;BME280;36594;45.192;5.722;2023-04-24T09:26:03;99006.27;;;24.36;37.96
34197;BME280;36594;45.192;5.722;2023-04-24T09:28:55;98998.00;;;24.33;37.94
34197;BME280;36594;45.192;5.722;2023-04-24T09:31:45;99005.44;;;24.35;38.00
34197;BME280;36594;45.192;5.722;2023-04-24T09:34:33;99006.30;;;24.38;37.97
34197;BME280;36594;45.192;5.722;2023-04-24T09:37:29;99002.45;;;24.39;37.85
34197;BME280;36594;45.192;5.722;2023-04-24T09:40:20;98997.77;;;24.37;37.89
34197;BME280;36594;45.192;5.722;2023-04-24T09:43:12;98995.29;;;24.36;37.92
34197;BME280;36594;45.192;5.722;2023-04-24T09:46:05;99000.81;;;24.38;37.92
34197;BME280;36594;45.192;5.722;2023-04-24T09:48:54;99001.91;;;24.40;37.85
34197;BME280;36594;45.192;5.722;2023-04-24T09:51:43;98995.86;;;24.38;37.83
34197;BME280;36594;45.192;5.722;2023-04-24T09:54:31;98995.56;;;24.37;37.84
34197;BME280;36594;45.192;5.722;2023-04-24T09:57:20;98987.59;;;24.35;37.85
34197;BME280;36594;45.192;5.722;2023-04-24T10:00:10;98981.03;;;24.36;37.87
34197;BME280;36594;45.192;5.722;2023-04-24T10:03:01;98979.36;;;24.35;37.92
34197;BME280;36594;45.192;5.722;2023-04-24T10:05:51;98977.17;;;24.37;37.91
34197;BME280;36594;45.192;5.722;2023-04-24T10:08:41;98978.28;;;24.36;37.93
34197;BME280;36594;45.192;5.722;2023-04-24T10:11:30;98976.08;;;24.36;37.83
34197;BME280;36594;45.192;5.722;2023-04-24T10:14:20;98978.55;;;24.37;37.89
34197;BME280;36594;45.192;5.722;2023-04-24T10:17:11;98977.17;;;24.37;37.84
34197;BME280;36594;45.192;5.722;2023-04-24T10:20:01;98972.55;;;24.40;37.89
34197;BME280;36594;45.192;5.722;2023-04-24T10:22:51;98970.64;;;24.41;37.76
34197;BME280;36594;45.192;5.722;2023-04-24T10:25:41;98967.06;;;24.40;37.73
34197;BME280;36594;45.192;5.722;2023-04-24T10:28:31;98968.14;;;24.39;37.76
34197;BME280;36594;45.192;5.722;2023-04-24T10:31:20;98973.39;;;24.41;37.78
34197;BME280;36594;45.192;5.722;2023-04-24T10:34:10;98978.61;;;24.42;37.79
34197;BME280;36594;45.192;5.722;2023-04-24T10:36:59;98965.66;;;24.38;37.75
34197;BME280;36594;45.192;5.722;2023-04-24T10:39:50;98972.25;;;24.39;37.76
34197;BME280;36594;45.192;5.722;2023-04-24T10:42:40;98967.59;;;24.40;37.74
34197;BME280;36594;45.192;5.722;2023-04-24T10:45:32;98963.45;;;24.37;37.76
34197;BME280;36594;45.192;5.722;2023-04-24T10:48:26;98959.06;;;24.36;37.79
34197;BME280;36594;45.192;5.722;2023-04-24T10:51:13;98956.59;;;24.37;37.81
34197;BME280;36594;45.192;5.722;2023-04-24T10:54:05;98952.47;;;24.37;37.77
34197;BME280;36594;45.192;5.722;2023-04-24T10:56:53;98949.16;;;24.35;37.85
34197;BME280;36594;45.192;5.722;2023-04-24T10:59:41;98954.14;;;24.38;37.79
34197;BME280;36594;45.192;5.722;2023-04-24T11:02:37;98946.14;;;24.37;37.77
34197;BME280;36594;45.192;5.722;2023-04-24T11:05:55;98945.34;;;24.36;37.79
34197;BME280;36594;45.192;5.722;2023-04-24T11:08:45;98938.75;;;24.37;37.78
34197;BME280;36594;45.192;5.722;2023-04-24T11:11:35;98939.84;;;24.36;37.78
34197;BME280;36594;45.192;5.722;2023-04-24T11:14:24;98943.67;;;24.35;37.75
34197;BME280;36594;45.192;5.722;2023-04-24T11:17:26;98938.48;;;24.36;37.73
34197;BME280;36594;45.192;5.722;2023-04-24T11:20:04;98939.28;;;24.37;37.72
34197;BME280;36594;45.192;5.722;2023-04-24T11:23:03;98940.95;;;24.38;37.71
34197;BME280;36594;45.192;5.722;2023-04-24T11:26:09;98943.70;;;24.38;37.71
34197;BME280;36594;45.192;5.722;2023-04-24T11:28:47;98934.63;;;24.37;37.65
34197;BME280;36594;45.192;5.722;2023-04-24T11:31:38;98934.63;;;24.37;37.71
34197;BME280;36594;45.192;5.722;2023-04-24T11:34:28;98932.16;;;24.36;37.70
34197;BME280;36594;45.192;5.722;2023-04-24T11:37:17;98939.28;;;24.37;37.71
34197;BME280;36594;45.192;5.722;2023-04-24T11:40:08;98930.78;;;24.36;37.71
34197;BME280;36594;45.192;5.722;2023-04-24T11:42:59;98930.80;;;24.38;37.66
34197;BME280;36594;45.192;5.722;2023-04-24T11:45:50;98926.95;;;24.39;37.68
34197;BME280;36594;45.192;5.722;2023-04-24T11:48:44;98917.64;;;24.40;37.63
34197;BME280;36594;45.192;5.722;2023-04-24T11:51:31;98911.62;;;24.41;37.63
34197;BME280;36594;45.192;5.722;2023-04-24T11:54:19;98906.66;;;24.40;37.61
34197;BME280;36594;45.192;5.722;2023-04-24T11:57:07;98901.98;;;24.38;37.68
34197;BME280;36594;45.192;5.722;2023-04-24T11:59:56;98902.78;;;24.39;37.68
34197;BME280;36594;45.192;5.722;2023-04-24T12:02:44;98900.61;;;24.38;37.75
34197;BME280;36594;45.192;5.722;2023-04-24T12:05:32;98900.61;;;24.38;37.74
34197;BME280;36594;45.192;5.722;2023-04-24T12:08:29;98897.86;;;24.38;37.69
34197;BME280;36594;45.192;5.722;2023-04-24T12:11:18;98896.22;;;24.40;37.65
34197;BME280;36594;45.192;5.722;2023-04-24T12:14:11;98892.64;;;24.39;37.65
34197;BME280;36594;45.192;5.722;2023-04-24T12:16:59;98890.19;;;24.40;37.66
34197;BME280;36594;45.192;5.722;2023-04-24T12:19:50;98883.03;;;24.39;37.64
34197;BME280;36594;45.192;5.722;2023-04-24T12:22:55;98887.15;;;24.39;37.60
34197;BME280;36594;45.192;5.722;2023-04-24T12:25:39;98881.93;;;24.38;37.63
34197;BME280;36594;45.192;5.722;2023-04-24T12:28:36;98878.65;;;24.38;37.63
34197;BME280;36594;45.192;5.722;2023-04-24T12:31:24;98889.36;;;24.40;37.61
34197;BME280;36594;45.192;5.722;2023-04-24T12:34:21;98891.27;;;24.39;37.58
34197;BME280;36594;45.192;5.722;2023-04-24T12:37:13;98895.14;;;24.41;37.55
34197;BME280;36594;45.192;5.722;2023-04-24T12:40:07;98894.04;;;24.42;37.57
34197;BME280;36594;45.192;5.722;2023-04-24T12:42:55;98887.45;;;24.40;37.59
34197;BME280;36594;45.192;5.722;2023-04-24T12:45:45;98884.97;;;24.41;37.55
34197;BME280;36594;45.192;5.722;2023-04-24T12:48:34;98882.22;;;24.41;37.54
34197;BME280;36594;45.192;5.722;2023-04-24T12:51:23;98885.27;;;24.42;37.54
34197;BME280;36594;45.192;5.722;2023-04-24T12:54:11;98877.03;;;24.42;37.56
34197;BME280;36594;45.192;5.722;2023-04-24T12:56:59;98874.84;;;24.44;37.50
34197;BME280;36594;45.192;5.722;2023-04-24T12:59:48;98870.16;;;24.42;37.54
34197;BME280;36594;45.192;5.722;2023-04-24T13:02:38;98864.97;;;24.43;37.59
34197;BME280;36594;45.192;5.722;2023-04-24T13:05:26;98858.67;;;24.45;37.51
34197;BME280;36594;45.192;5.722;2023-04-24T13:08:14;98857.84;;;24.45;37.51
34197;BME280;36594;45.192;5.722;2023-04-24T13:11:02;98863.86;;;24.44;37.51
34197;BME280;36594;45.192;5.722;2023-04-24T13:13:51;98855.92;;;24.45;37.47
34197;BME280;36594;45.192;5.722;2023-04-24T13:16:39;98846.85;;;24.45;37.52
34197;BME280;36594;45.192;5.722;2023-04-24T13:19:28;98851.24;;;24.43;37.49
34197;BME280;36594;45.192;5.722;2023-04-24T13:22:16;98844.92;;;24.43;37.62
34197;BME280;36594;45.192;5.722;2023-04-24T13:25:07;98840.53;;;24.44;37.58
34197;BME280;36594;45.192;5.722;2023-04-24T13:27:56;98836.95;;;24.44;37.52
34197;BME280;36594;45.192;5.722;2023-04-24T13:30:44;98836.41;;;24.44;37.51
34197;BME280;36594;45.192;5.722;2023-04-24T13:33:32;98829.28;;;24.43;37.56
34197;BME280;36594;45.192;5.722;2023-04-24T13:36:20;98829.56;;;24.47;37.61
34197;BME280;36594;45.192;5.722;2023-04-24T13:39:09;98815.01;;;24.46;37.52
34197;BME280;36594;45.192;5.722;2023-04-24T13:41:59;98807.88;;;24.45;37.48
34197;BME280;36594;45.192;5.722;2023-04-24T13:44:47;98799.91;;;24.46;37.44
34197;BME280;36594;45.192;5.722;2023-04-24T13:47:36;98801.28;;;24.46;37.42
34197;BME280;36594;45.192;5.722;2023-04-24T13:50:26;98792.20;;;24.46;37.39
34197;BME280;36594;45.192;5.722;2023-04-24T13:53:14;98794.41;;;24.46;37.42
34197;BME280;36594;45.192;5.722;2023-04-24T13:56:03;98780.69;;;24.46;37.41
34197;BME280;36594;45.192;5.722;2023-04-24T13:58:51;98776.30;;;24.45;37.39
34197;BME280;36594;45.192;5.722;2023-04-24T14:01:41;98763.67;;;24.47;37.37
34197;BME280;36594;45.192;5.722;2023-04-24T14:04:29;98766.13;;;24.46;37.38
34197;BME280;36594;45.192;5.722;2023-04-24T14:07:18;98761.77;;;24.47;37.30
34197;BME280;36594;45.192;5.722;2023-04-24T14:10:07;98752.97;;;24.45;37.30
34197;BME280;36594;45.192;5.722;2023-04-24T14:12:55;98749.95;;;24.47;37.27
34197;BME280;36594;45.192;5.722;2023-04-24T14:15:44;98748.03;;;24.47;37.26
34197;BME280;36594;45.192;5.722;2023-04-24T14:18:32;98741.71;;;24.47;37.25
34197;BME280;36594;45.192;5.722;2023-04-24T14:21:20;98740.06;;;24.48;37.20
34197;BME280;36594;45.192;5.722;2023-04-24T14:24:09;98731.56;;;24.47;37.17
34197;BME280;36594;45.192;5.722;2023-04-24T14:26:58;98733.20;;;24.48;37.17
34197;BME280;36594;45.192;5.722;2023-04-24T14:29:46;98716.70;;;24.41;37.16
34197;BME280;36594;45.192;5.722;2023-04-24T14:32:34;98716.17;;;24.46;37.12
34197;BME280;36594;45.192;5.722;2023-04-24T14:35:23;98714.81;;;24.49;37.09
34197;BME280;36594;45.192;5.722;2023-04-24T14:38:11;98729.39;;;24.52;37.06
34197;BME280;36594;45.192;5.722;2023-04-24T14:41:00;98724.44;;;24.51;37.01
34197;BME280;36594;45.192;5.722;2023-04-24T14:43:48;98722.23;;;24.51;36.99
34197;BME280;36594;45.192;5.722;2023-04-24T14:46:37;98723.91;;;24.52;36.97
34197;BME280;36594;45.192;5.722;2023-04-24T14:49:26;98722.80;;;24.53;36.98
34197;BME280;36594;45.192;5.722;2023-04-24T14:52:15;98720.59;;;24.50;37.10
34197;BME280;36594;45.192;5.722;2023-04-24T14:55:03;98720.87;;;24.53;37.06
34197;BME280;36594;45.192;5.722;2023-04-24T14:57:53;98718.13;;;24.53;37.01